sensor_id;sensor_type;location;lat;lon;timestamp;P1;durP1;ratioP1;P2;durP2;ratioP2
40849;SDS011;26571;41.610;25.380;2023-07-31T00:01:44;2.00;;;1.03;;
40849;SDS011;26571;41.610;25.380;2023-07-31T00:04:10;0.93;;;0.93;;
40849;SDS011;26571;41.610;25.380;2023-07-31T00:06:35;0.82;;;0.82;;
40849;SDS011;26571;41.610;25.380;2023-07-31T00:09:01;1.00;;;1.00;;
40849;SDS011;26571;41.610;25.380;2023-07-31T00:11:26;1.10;;;1.00;;
40849;SDS011;26571;41.610;25.380;2023-07-31T00:13:53;1.17;;;0.93;;
40849;SDS011;26571;41.610;25.380;2023-07-31T00:18:44;1.20;;;1.00;;
40849;SDS011;26571;41.610;25.380;2023-07-31T00:21:09;1.23;;;1.20;;
40849;SDS011;26571;41.610;25.380;2023-07-31T00:23:35;1.10;;;1.10;;
40849;SDS011;26571;41.610;25.380;2023-07-31T00:26:00;0.85;;;0.85;;
40849;SDS011;26571;41.610;25.380;2023-07-31T00:28:25;1.37;;;1.00;;
40849;SDS011;26571;41.610;25.380;2023-07-31T00:30:52;1.13;;;0.98;;
40849;SDS011;26571;41.610;25.380;2023-07-31T00:33:18;1.13;;;0.90;;
40849;SDS011;26571;41.610;25.380;2023-07-31T00:35:43;1.80;;;1.70;;
40849;SDS011;26571;41.610;25.380;2023-07-31T00:38:08;2.17;;;1.20;;
40849;SDS011;26571;41.610;25.380;2023-07-31T00:40:34;1.97;;;1.20;;
40849;SDS011;26571;41.610;25.380;2023-07-31T00:43:01;1.00;;;1.00;;
40849;SDS011;26571;41.610;25.380;2023-07-31T00:45:28;0.98;;;0.95;;
40849;SDS011;26571;41.610;25.380;2023-07-31T00:47:54;1.27;;;1.27;;
40849;SDS011;26571;41.610;25.380;2023-07-31T00:50:19;4.63;;;1.27;;
40849;SDS011;26571;41.610;25.380;2023-07-31T00:52:45;1.07;;;0.97;;
40849;SDS011;26571;41.610;25.380;2023-07-31T00:55:10;1.20;;;0.80;;
40849;SDS011;26571;41.610;25.380;2023-07-31T00:57:36;4.13;;;1.87;;
40849;SDS011;26571;41.610;25.380;2023-07-31T01:00:03;0.85;;;0.85;;
40849;SDS011;26571;41.610;25.380;2023-07-31T01:02:29;3.38;;;1.33;;
40849;SDS011;26571;41.610;25.380;2023-07-31T01:04:55;1.77;;;1.42;;
40849;SDS011;26571;41.610;25.380;2023-07-31T01:07:39;1.58;;;0.70;;
40849;SDS011;26571;41.610;25.380;2023-07-31T01:12:48;2.45;;;1.25;;
40849;SDS011;26571;41.610;25.380;2023-07-31T01:15:17;2.65;;;1.23;;
40849;SDS011;26571;41.610;25.380;2023-07-31T01:20:10;1.40;;;1.40;;
40849;SDS011;26571;41.610;25.380;2023-07-31T01:22:47;1.70;;;1.60;;
40849;SDS011;26571;41.610;25.380;2023-07-31T01:28:05;2.67;;;1.02;;
40849;SDS011;26571;41.610;25.380;2023-07-31T01:30:37;2.70;;;1.58;;
40849;SDS011;26571;41.610;25.380;2023-07-31T01:33:06;1.42;;;1.33;;
40849;SDS011;26571;41.610;25.380;2023-07-31T01:35:33;1.95;;;1.10;;
40849;SDS011;26571;41.610;25.380;2023-07-31T01:37:59;1.13;;;1.05;;
40849;SDS011;26571;41.610;25.380;2023-07-31T01:40:25;1.10;;;1.00;;
40849;SDS011;26571;41.610;25.380;2023-07-31T01:42:50;1.58;;;1.17;;
40849;SDS011;26571;41.610;25.380;2023-07-31T01:45:16;4.07;;;1.40;;
40849;SDS011;26571;41.610;25.380;2023-07-31T01:47:41;2.15;;;1.20;;
40849;SDS011;26571;41.610;25.380;2023-07-31T01:50:07;1.10;;;1.10;;
40849;SDS011;26571;41.610;25.380;2023-07-31T01:52:32;1.17;;;1.08;;
40849;SDS011;26571;41.610;25.380;2023-07-31T01:54:58;1.43;;;1.23;;
40849;SDS011;26571;41.610;25.380;2023-07-31T01:57:23;1.50;;;1.40;;
40849;SDS011;26571;41.610;25.380;2023-07-31T01:59:49;1.15;;;1.15;;
40849;SDS011;26571;41.610;25.380;2023-07-31T02:02:15;2.70;;;1.23;;
40849;SDS011;26571;41.610;25.380;2023-07-31T02:04:41;1.55;;;1.45;;
40849;SDS011;26571;41.610;25.380;2023-07-31T02:07:06;2.25;;;1.35;;
40849;SDS011;26571;41.610;25.380;2023-07-31T02:09:32;1.52;;;1.42;;
40849;SDS011;26571;41.610;25.380;2023-07-31T02:11:57;1.55;;;1.45;;
40849;SDS011;26571;41.610;25.380;2023-07-31T02:14:22;2.15;;;1.48;;
40849;SDS011;26571;41.610;25.380;2023-07-31T02:16:48;1.33;;;1.20;;
40849;SDS011;26571;41.610;25.380;2023-07-31T02:19:13;5.20;;;1.37;;
40849;SDS011;26571;41.610;25.380;2023-07-31T02:21:39;3.83;;;1.50;;
40849;SDS011;26571;41.610;25.380;2023-07-31T02:24:04;1.60;;;0.90;;
40849;SDS011;26571;41.610;25.380;2023-07-31T02:26:30;2.10;;;1.57;;
40849;SDS011;26571;41.610;25.380;2023-07-31T02:28:55;3.60;;;1.40;;
40849;SDS011;26571;41.610;25.380;2023-07-31T02:31:20;3.55;;;1.65;;
40849;SDS011;26571;41.610;25.380;2023-07-31T02:33:46;1.45;;;1.38;;
40849;SDS011;26571;41.610;25.380;2023-07-31T02:36:11;3.13;;;1.73;;
40849;SDS011;26571;41.610;25.380;2023-07-31T02:38:37;2.60;;;1.57;;
40849;SDS011;26571;41.610;25.380;2023-07-31T02:41:02;1.40;;;1.35;;
40849;SDS011;26571;41.610;25.380;2023-07-31T02:43:27;1.75;;;1.65;;
40849;SDS011;26571;41.610;25.380;2023-07-31T02:45:53;1.00;;;0.98;;
40849;SDS011;26571;41.610;25.380;2023-07-31T02:48:18;1.42;;;1.30;;
40849;SDS011;26571;41.610;25.380;2023-07-31T02:50:44;1.33;;;1.23;;
40849;SDS011;26571;41.610;25.380;2023-07-31T02:53:10;0.85;;;0.70;;
40849;SDS011;26571;41.610;25.380;2023-07-31T02:55:36;1.60;;;0.73;;
40849;SDS011;26571;41.610;25.380;2023-07-31T02:58:01;2.58;;;1.15;;
40849;SDS011;26571;41.610;25.380;2023-07-31T03:00:27;1.05;;;1.00;;
40849;SDS011;26571;41.610;25.380;2023-07-31T03:02:53;1.80;;;0.70;;
40849;SDS011;26571;41.610;25.380;2023-07-31T03:05:18;2.10;;;0.40;;
40849;SDS011;26571;41.610;25.380;2023-07-31T03:07:44;2.95;;;1.73;;
40849;SDS011;26571;41.610;25.380;2023-07-31T03:10:09;0.90;;;0.77;;
40849;SDS011;26571;41.610;25.380;2023-07-31T03:12:34;0.68;;;0.68;;
40849;SDS011;26571;41.610;25.380;2023-07-31T03:15:00;2.05;;;0.55;;
40849;SDS011;26571;41.610;25.380;2023-07-31T03:17:25;4.25;;;0.88;;
40849;SDS011;26571;41.610;25.380;2023-07-31T03:19:50;3.65;;;0.80;;
40849;SDS011;26571;41.610;25.380;2023-07-31T03:22:16;4.70;;;2.05;;
40849;SDS011;26571;41.610;25.380;2023-07-31T03:24:41;1.58;;;0.70;;
40849;SDS011;26571;41.610;25.380;2023-07-31T03:27:07;0.98;;;0.80;;
40849;SDS011;26571;41.610;25.380;2023-07-31T03:29:32;2.10;;;0.50;;
40849;SDS011;26571;41.610;25.380;2023-07-31T03:31:58;2.75;;;1.77;;
40849;SDS011;26571;41.610;25.380;2023-07-31T03:34:24;2.53;;;0.52;;
40849;SDS011;26571;41.610;25.380;2023-07-31T03:36:49;1.30;;;0.60;;
40849;SDS011;26571;41.610;25.380;2023-07-31T03:39:15;2.40;;;0.60;;
40849;SDS011;26571;41.610;25.380;2023-07-31T03:41:40;0.93;;;0.70;;
40849;SDS011;26571;41.610;25.380;2023-07-31T03:44:05;2.28;;;0.70;;
40849;SDS011;26571;41.610;25.380;2023-07-31T03:46:31;5.55;;;1.17;;
40849;SDS011;26571;41.610;25.380;2023-07-31T03:48:56;1.10;;;1.00;;
40849;SDS011;26571;41.610;25.380;2023-07-31T03:51:22;1.05;;;0.65;;
40849;SDS011;26571;41.610;25.380;2023-07-31T03:53:47;2.15;;;0.70;;
40849;SDS011;26571;41.610;25.380;2023-07-31T03:56:13;5.18;;;0.80;;
40849;SDS011;26571;41.610;25.380;2023-07-31T03:58:38;2.42;;;0.60;;
40849;SDS011;26571;41.610;25.380;2023-07-31T04:01:03;3.17;;;0.80;;
40849;SDS011;26571;41.610;25.380;2023-07-31T04:03:29;5.23;;;0.77;;
40849;SDS011;26571;41.610;25.380;2023-07-31T04:05:55;8.43;;;2.28;;
40849;SDS011;26571;41.610;25.380;2023-07-31T04:08:21;7.90;;;1.80;;
40849;SDS011;26571;41.610;25.380;2023-07-31T04:10:47;6.60;;;1.80;;
40849;SDS011;26571;41.610;25.380;2023-07-31T04:13:12;0.93;;;0.70;;
40849;SDS011;26571;41.610;25.380;2023-07-31T04:15:38;3.27;;;0.70;;
40849;SDS011;26571;41.610;25.380;2023-07-31T04:18:04;1.37;;;0.63;;
40849;SDS011;26571;41.610;25.380;2023-07-31T04:20:30;1.23;;;0.70;;
40849;SDS011;26571;41.610;25.380;2023-07-31T04:22:55;4.97;;;0.87;;
40849;SDS011;26571;41.610;25.380;2023-07-31T04:25:21;3.83;;;0.73;;
40849;SDS011;26571;41.610;25.380;2023-07-31T04:27:46;4.57;;;0.63;;
40849;SDS011;26571;41.610;25.380;2023-07-31T04:30:12;1.20;;;0.50;;
40849;SDS011;26571;41.610;25.380;2023-07-31T04:32:37;0.73;;;0.60;;
40849;SDS011;26571;41.610;25.380;2023-07-31T04:35:03;3.07;;;0.67;;
40849;SDS011;26571;41.610;25.380;2023-07-31T04:37:29;1.37;;;0.67;;
40849;SDS011;26571;41.610;25.380;2023-07-31T04:39:54;0.90;;;0.50;;
40849;SDS011;26571;41.610;25.380;2023-07-31T04:42:19;1.07;;;0.60;;
40849;SDS011;26571;41.610;25.380;2023-07-31T04:44:45;2.87;;;0.37;;
40849;SDS011;26571;41.610;25.380;2023-07-31T04:47:10;1.17;;;1.10;;
40849;SDS011;26571;41.610;25.380;2023-07-31T04:49:36;1.77;;;1.27;;
40849;SDS011;26571;41.610;25.380;2023-07-31T04:52:01;1.77;;;0.50;;
40849;SDS011;26571;41.610;25.380;2023-07-31T04:54:27;2.10;;;0.40;;
40849;SDS011;26571;41.610;25.380;2023-07-31T04:56:52;0.43;;;0.40;;
40849;SDS011;26571;41.610;25.380;2023-07-31T04:59:18;1.73;;;0.40;;
40849;SDS011;26571;41.610;25.380;2023-07-31T05:01:43;0.47;;;0.47;;
40849;SDS011;26571;41.610;25.380;2023-07-31T05:04:12;3.05;;;0.57;;
40849;SDS011;26571;41.610;25.380;2023-07-31T05:06:38;3.05;;;0.40;;
40849;SDS011;26571;41.610;25.380;2023-07-31T05:09:03;2.57;;;1.00;;
40849;SDS011;26571;41.610;25.380;2023-07-31T05:11:29;0.80;;;0.40;;
40849;SDS011;26571;41.610;25.380;2023-07-31T05:13:54;0.67;;;0.60;;
40849;SDS011;26571;41.610;25.380;2023-07-31T05:16:20;0.70;;;0.70;;
40849;SDS011;26571;41.610;25.380;2023-07-31T05:18:45;0.50;;;0.50;;
40849;SDS011;26571;41.610;25.380;2023-07-31T05:21:10;1.87;;;0.80;;
40849;SDS011;26571;41.610;25.380;2023-07-31T05:23:36;1.03;;;0.60;;
40849;SDS011;26571;41.610;25.380;2023-07-31T05:26:05;1.17;;;0.87;;
40849;SDS011;26571;41.610;25.380;2023-07-31T05:28:30;0.70;;;0.70;;
40849;SDS011;26571;41.610;25.380;2023-07-31T05:31:02;0.97;;;0.83;;
40849;SDS011;26571;41.610;25.380;2023-07-31T05:33:29;2.25;;;0.77;;
40849;SDS011;26571;41.610;25.380;2023-07-31T05:35:54;1.53;;;0.57;;
40849;SDS011;26571;41.610;25.380;2023-07-31T05:38:19;3.80;;;1.60;;
40849;SDS011;26571;41.610;25.380;2023-07-31T05:40:45;2.60;;;0.70;;
40849;SDS011;26571;41.610;25.380;2023-07-31T05:43:10;0.90;;;0.60;;
40849;SDS011;26571;41.610;25.380;2023-07-31T05:45:36;3.30;;;0.90;;
40849;SDS011;26571;41.610;25.380;2023-07-31T05:48:02;4.43;;;0.73;;
40849;SDS011;26571;41.610;25.380;2023-07-31T05:50:27;2.67;;;0.68;;
40849;SDS011;26571;41.610;25.380;2023-07-31T05:52:53;2.37;;;1.30;;
40849;SDS011;26571;41.610;25.380;2023-07-31T05:55:18;3.00;;;1.23;;
40849;SDS011;26571;41.610;25.380;2023-07-31T05:57:44;2.40;;;0.80;;
40849;SDS011;26571;41.610;25.380;2023-07-31T06:00:11;2.00;;;0.88;;
40849;SDS011;26571;41.610;25.380;2023-07-31T06:02:37;4.70;;;0.70;;
40849;SDS011;26571;41.610;25.380;2023-07-31T06:05:03;1.57;;;0.83;;
40849;SDS011;26571;41.610;25.380;2023-07-31T06:07:30;1.15;;;0.52;;
40849;SDS011;26571;41.610;25.380;2023-07-31T06:09:56;2.87;;;0.73;;
40849;SDS011;26571;41.610;25.380;2023-07-31T06:12:27;1.20;;;0.95;;
40849;SDS011;26571;41.610;25.380;2023-07-31T06:14:52;3.00;;;0.70;;
40849;SDS011;26571;41.610;25.380;2023-07-31T06:17:17;1.53;;;1.43;;
40849;SDS011;26571;41.610;25.380;2023-07-31T06:19:43;1.37;;;1.03;;
40849;SDS011;26571;41.610;25.380;2023-07-31T06:22:08;1.63;;;0.97;;
40849;SDS011;26571;41.610;25.380;2023-07-31T06:24:34;3.60;;;1.87;;
40849;SDS011;26571;41.610;25.380;2023-07-31T06:26:59;2.53;;;1.38;;
40849;SDS011;26571;41.610;25.380;2023-07-31T06:29:25;1.97;;;0.97;;
40849;SDS011;26571;41.610;25.380;2023-07-31T06:31:50;1.83;;;0.70;;
40849;SDS011;26571;41.610;25.380;2023-07-31T06:34:16;5.40;;;1.33;;
40849;SDS011;26571;41.610;25.380;2023-07-31T06:36:42;1.30;;;1.20;;
40849;SDS011;26571;41.610;25.380;2023-07-31T06:39:07;0.83;;;0.80;;
40849;SDS011;26571;41.610;25.380;2023-07-31T06:41:34;2.60;;;1.00;;
40849;SDS011;26571;41.610;25.380;2023-07-31T06:43:59;2.15;;;1.17;;
40849;SDS011;26571;41.610;25.380;2023-07-31T06:46:24;2.20;;;1.63;;
40849;SDS011;26571;41.610;25.380;2023-07-31T06:48:50;3.33;;;0.80;;
40849;SDS011;26571;41.610;25.380;2023-07-31T06:51:15;2.83;;;1.10;;
40849;SDS011;26571;41.610;25.380;2023-07-31T06:53:41;1.70;;;1.60;;
40849;SDS011;26571;41.610;25.380;2023-07-31T06:56:07;1.27;;;1.15;;
40849;SDS011;26571;41.610;25.380;2023-07-31T06:58:33;3.17;;;1.05;;
40849;SDS011;26571;41.610;25.380;2023-07-31T07:00:58;0.73;;;0.73;;
40849;SDS011;26571;41.610;25.380;2023-07-31T07:03:24;1.90;;;1.23;;
40849;SDS011;26571;41.610;25.380;2023-07-31T07:05:50;1.60;;;1.50;;
40849;SDS011;26571;41.610;25.380;2023-07-31T07:08:15;3.15;;;1.50;;
40849;SDS011;26571;41.610;25.380;2023-07-31T07:10:41;1.98;;;1.88;;
40849;SDS011;26571;41.610;25.380;2023-07-31T07:13:07;2.97;;;1.50;;
40849;SDS011;26571;41.610;25.380;2023-07-31T07:15:32;5.57;;;2.65;;
40849;SDS011;26571;41.610;25.380;2023-07-31T07:17:58;1.93;;;1.20;;
40849;SDS011;26571;41.610;25.380;2023-07-31T07:20:23;1.67;;;1.20;;
40849;SDS011;26571;41.610;25.380;2023-07-31T07:22:49;3.47;;;1.53;;
40849;SDS011;26571;41.610;25.380;2023-07-31T07:25:14;2.17;;;2.00;;
40849;SDS011;26571;41.610;25.380;2023-07-31T07:27:40;2.03;;;1.50;;
40849;SDS011;26571;41.610;25.380;2023-07-31T07:30:05;3.30;;;2.97;;
40849;SDS011;26571;41.610;25.380;2023-07-31T07:32:31;2.97;;;2.47;;
40849;SDS011;26571;41.610;25.380;2023-07-31T07:34:57;2.60;;;1.17;;
40849;SDS011;26571;41.610;25.380;2023-07-31T07:37:22;1.75;;;1.30;;
40849;SDS011;26571;41.610;25.380;2023-07-31T07:39:47;5.93;;;3.07;;
40849;SDS011;26571;41.610;25.380;2023-07-31T07:42:13;4.60;;;2.50;;
40849;SDS011;26571;41.610;25.380;2023-07-31T07:44:38;1.60;;;1.50;;
40849;SDS011;26571;41.610;25.380;2023-07-31T07:47:04;1.07;;;0.90;;
40849;SDS011;26571;41.610;25.380;2023-07-31T07:49:35;1.35;;;1.25;;
40849;SDS011;26571;41.610;25.380;2023-07-31T07:52:01;0.93;;;0.93;;
40849;SDS011;26571;41.610;25.380;2023-07-31T07:54:27;1.53;;;1.43;;
40849;SDS011;26571;41.610;25.380;2023-07-31T07:56:52;3.00;;;0.90;;
40849;SDS011;26571;41.610;25.380;2023-07-31T07:59:19;1.55;;;1.42;;
40849;SDS011;26571;41.610;25.380;2023-07-31T08:01:45;1.63;;;1.02;;
40849;SDS011;26571;41.610;25.380;2023-07-31T08:04:10;3.03;;;1.17;;
40849;SDS011;26571;41.610;25.380;2023-07-31T08:06:36;1.10;;;1.10;;
40849;SDS011;26571;41.610;25.380;2023-07-31T08:09:01;3.63;;;1.37;;
40849;SDS011;26571;41.610;25.380;2023-07-31T08:11:31;2.70;;;1.30;;
40849;SDS011;26571;41.610;25.380;2023-07-31T08:13:57;3.70;;;2.33;;
40849;SDS011;26571;41.610;25.380;2023-07-31T08:16:22;2.87;;;1.30;;
40849;SDS011;26571;41.610;25.380;2023-07-31T08:18:48;1.70;;;1.60;;
40849;SDS011;26571;41.610;25.380;2023-07-31T08:21:13;1.43;;;1.43;;
40849;SDS011;26571;41.610;25.380;2023-07-31T08:23:40;1.27;;;1.13;;
40849;SDS011;26571;41.610;25.380;2023-07-31T08:26:05;2.17;;;2.00;;
40849;SDS011;26571;41.610;25.380;2023-07-31T08:28:31;1.83;;;1.57;;
40849;SDS011;26571;41.610;25.380;2023-07-31T08:30:56;1.80;;;1.60;;
40849;SDS011;26571;41.610;25.380;2023-07-31T08:33:21;5.03;;;2.03;;
40849;SDS011;26571;41.610;25.380;2023-07-31T08:35:47;2.53;;;1.63;;
40849;SDS011;26571;41.610;25.380;2023-07-31T08:38:13;0.80;;;0.80;;
40849;SDS011;26571;41.610;25.380;2023-07-31T08:40:38;3.43;;;1.37;;
40849;SDS011;26571;41.610;25.380;2023-07-31T08:43:04;1.23;;;1.10;;
40849;SDS011;26571;41.610;25.380;2023-07-31T08:45:30;0.90;;;0.90;;
40849;SDS011;26571;41.610;25.380;2023-07-31T08:47:56;1.47;;;1.07;;
40849;SDS011;26571;41.610;25.380;2023-07-31T08:50:24;1.42;;;0.93;;
40849;SDS011;26571;41.610;25.380;2023-07-31T08:52:50;0.87;;;0.87;;
40849;SDS011;26571;41.610;25.380;2023-07-31T08:55:17;0.98;;;0.90;;
40849;SDS011;26571;41.610;25.380;2023-07-31T08:57:43;0.95;;;0.95;;
40849;SDS011;26571;41.610;25.380;2023-07-31T09:00:09;3.30;;;1.23;;
40849;SDS011;26571;41.610;25.380;2023-07-31T09:02:45;1.23;;;1.13;;
40849;SDS011;26571;41.610;25.380;2023-07-31T09:05:16;0.93;;;0.93;;
40849;SDS011;26571;41.610;25.380;2023-07-31T09:07:44;1.73;;;1.20;;
40849;SDS011;26571;41.610;25.380;2023-07-31T09:10:12;2.30;;;0.95;;
40849;SDS011;26571;41.610;25.380;2023-07-31T09:12:38;1.27;;;1.13;;
40849;SDS011;26571;41.610;25.380;2023-07-31T09:15:04;2.17;;;1.25;;
40849;SDS011;26571;41.610;25.380;2023-07-31T09:17:36;2.50;;;1.20;;
40849;SDS011;26571;41.610;25.380;2023-07-31T09:22:46;2.78;;;1.20;;
40849;SDS011;26571;41.610;25.380;2023-07-31T09:25:19;1.50;;;1.40;;
40849;SDS011;26571;41.610;25.380;2023-07-31T09:27:46;1.17;;;1.05;;
40849;SDS011;26571;41.610;25.380;2023-07-31T09:30:13;1.13;;;1.02;;
40849;SDS011;26571;41.610;25.380;2023-07-31T09:32:39;2.13;;;1.30;;
40849;SDS011;26571;41.610;25.380;2023-07-31T09:37:53;1.52;;;1.52;;
40849;SDS011;26571;41.610;25.380;2023-07-31T09:40:28;1.58;;;1.48;;
40849;SDS011;26571;41.610;25.380;2023-07-31T09:42:58;1.30;;;1.20;;
40849;SDS011;26571;41.610;25.380;2023-07-31T09:45:25;1.20;;;1.20;;
40849;SDS011;26571;41.610;25.380;2023-07-31T09:47:51;1.40;;;1.30;;
40849;SDS011;26571;41.610;25.380;2023-07-31T09:50:17;2.13;;;1.90;;
40849;SDS011;26571;41.610;25.380;2023-07-31T09:52:44;2.45;;;1.55;;
40849;SDS011;26571;41.610;25.380;2023-07-31T09:55:10;1.57;;;1.30;;
40849;SDS011;26571;41.610;25.380;2023-07-31T09:57:43;1.83;;;1.73;;
40849;SDS011;26571;41.610;25.380;2023-07-31T10:00:11;3.25;;;1.80;;
40849;SDS011;26571;41.610;25.380;2023-07-31T10:02:38;2.13;;;1.90;;
40849;SDS011;26571;41.610;25.380;2023-07-31T10:05:05;2.03;;;1.92;;
40849;SDS011;26571;41.610;25.380;2023-07-31T10:07:38;2.00;;;1.90;;
40849;SDS011;26571;41.610;25.380;2023-07-31T10:10:09;2.22;;;2.13;;
40849;SDS011;26571;41.610;25.380;2023-07-31T10:12:35;2.60;;;2.40;;
40849;SDS011;26571;41.610;25.380;2023-07-31T10:15:01;1.50;;;1.45;;
40849;SDS011;26571;41.610;25.380;2023-07-31T10:19:54;2.08;;;1.98;;
40849;SDS011;26571;41.610;25.380;2023-07-31T10:22:21;3.10;;;2.05;;
40849;SDS011;26571;41.610;25.380;2023-07-31T10:24:47;3.77;;;2.70;;
40849;SDS011;26571;41.610;25.380;2023-07-31T10:27:13;3.47;;;2.50;;
40849;SDS011;26571;41.610;25.380;2023-07-31T10:29:39;3.70;;;1.90;;
40849;SDS011;26571;41.610;25.380;2023-07-31T10:32:08;3.13;;;1.88;;
40849;SDS011;26571;41.610;25.380;2023-07-31T10:34:36;2.20;;;2.00;;
40849;SDS011;26571;41.610;25.380;2023-07-31T10:37:19;11.52;;;4.35;;
40849;SDS011;26571;41.610;25.380;2023-07-31T10:42:20;2.95;;;2.15;;
40849;SDS011;26571;41.610;25.380;2023-07-31T10:44:56;2.53;;;2.42;;
40849;SDS011;26571;41.610;25.380;2023-07-31T10:47:57;2.40;;;2.25;;
40849;SDS011;26571;41.610;25.380;2023-07-31T10:50:28;3.13;;;2.90;;
40849;SDS011;26571;41.610;25.380;2023-07-31T10:52:55;2.58;;;2.38;;
40849;SDS011;26571;41.610;25.380;2023-07-31T10:58:07;2.45;;;2.28;;
40849;SDS011;26571;41.610;25.380;2023-07-31T11:00:37;3.60;;;3.25;;
40849;SDS011;26571;41.610;25.380;2023-07-31T11:03:04;3.08;;;2.88;;
40849;SDS011;26571;41.610;25.380;2023-07-31T11:13:27;2.40;;;2.27;;
40849;SDS011;26571;41.610;25.380;2023-07-31T11:15:53;3.03;;;2.92;;
40849;SDS011;26571;41.610;25.380;2023-07-31T11:18:18;2.50;;;2.30;;
40849;SDS011;26571;41.610;25.380;2023-07-31T11:20:44;2.50;;;2.40;;
40849;SDS011;26571;41.610;25.380;2023-07-31T11:23:10;3.03;;;2.83;;
40849;SDS011;26571;41.610;25.380;2023-07-31T11:25:36;2.67;;;2.58;;
40849;SDS011;26571;41.610;25.380;2023-07-31T11:28:06;2.70;;;2.28;;
40849;SDS011;26571;41.610;25.380;2023-07-31T11:30:36;2.10;;;2.00;;
40849;SDS011;26571;41.610;25.380;2023-07-31T11:33:02;2.17;;;1.83;;
40849;SDS011;26571;41.610;25.380;2023-07-31T11:35:35;2.40;;;2.30;;
40849;SDS011;26571;41.610;25.380;2023-07-31T11:38:06;2.10;;;1.92;;
40849;SDS011;26571;41.610;25.380;2023-07-31T11:40:40;1.33;;;1.33;;
40849;SDS011;26571;41.610;25.380;2023-07-31T11:43:09;4.47;;;4.07;;
40849;SDS011;26571;41.610;25.380;2023-07-31T11:45:36;2.22;;;2.05;;
40849;SDS011;26571;41.610;25.380;2023-07-31T11:48:04;1.50;;;1.40;;
40849;SDS011;26571;41.610;25.380;2023-07-31T11:50:29;1.90;;;1.80;;
40849;SDS011;26571;41.610;25.380;2023-07-31T11:53:00;2.13;;;1.85;;
40849;SDS011;26571;41.610;25.380;2023-07-31T11:55:34;1.77;;;1.67;;
40849;SDS011;26571;41.610;25.380;2023-07-31T11:58:00;1.77;;;1.48;;
40849;SDS011;26571;41.610;25.380;2023-07-31T12:00:26;1.73;;;1.67;;
40849;SDS011;26571;41.610;25.380;2023-07-31T12:02:52;1.20;;;1.10;;
40849;SDS011;26571;41.610;25.380;2023-07-31T12:05:18;1.20;;;1.20;;
40849;SDS011;26571;41.610;25.380;2023-07-31T12:07:51;1.45;;;1.35;;
40849;SDS011;26571;41.610;25.380;2023-07-31T12:10:27;2.78;;;2.00;;
40849;SDS011;26571;41.610;25.380;2023-07-31T12:15:29;1.05;;;1.05;;
40849;SDS011;26571;41.610;25.380;2023-07-31T12:17:58;1.20;;;1.20;;
40849;SDS011;26571;41.610;25.380;2023-07-31T12:20:23;2.00;;;1.90;;
40849;SDS011;26571;41.610;25.380;2023-07-31T12:22:49;1.30;;;1.20;;
40849;SDS011;26571;41.610;25.380;2023-07-31T12:25:17;1.30;;;1.17;;
40849;SDS011;26571;41.610;25.380;2023-07-31T12:27:46;1.50;;;1.38;;
40849;SDS011;26571;41.610;25.380;2023-07-31T12:30:27;1.40;;;1.30;;
40849;SDS011;26571;41.610;25.380;2023-07-31T12:32:54;2.60;;;1.20;;
40849;SDS011;26571;41.610;25.380;2023-07-31T12:35:19;1.20;;;1.20;;
40849;SDS011;26571;41.610;25.380;2023-07-31T12:37:45;1.30;;;1.20;;
40849;SDS011;26571;41.610;25.380;2023-07-31T12:40:10;1.57;;;1.47;;
40849;SDS011;26571;41.610;25.380;2023-07-31T12:42:36;1.27;;;1.27;;
40849;SDS011;26571;41.610;25.380;2023-07-31T12:45:02;1.47;;;1.33;;
40849;SDS011;26571;41.610;25.380;2023-07-31T12:47:28;2.47;;;1.45;;
40849;SDS011;26571;41.610;25.380;2023-07-31T12:49:55;2.08;;;1.98;;
40849;SDS011;26571;41.610;25.380;2023-07-31T12:52:20;4.10;;;2.97;;
40849;SDS011;26571;41.610;25.380;2023-07-31T12:54:45;2.03;;;1.93;;
40849;SDS011;26571;41.610;25.380;2023-07-31T12:57:11;1.50;;;1.40;;
40849;SDS011;26571;41.610;25.380;2023-07-31T12:59:36;1.47;;;1.47;;
40849;SDS011;26571;41.610;25.380;2023-07-31T13:02:02;1.97;;;1.87;;
40849;SDS011;26571;41.610;25.380;2023-07-31T13:04:28;2.00;;;1.90;;
40849;SDS011;26571;41.610;25.380;2023-07-31T13:06:53;2.13;;;1.90;;
40849;SDS011;26571;41.610;25.380;2023-07-31T13:09:18;2.03;;;1.93;;
40849;SDS011;26571;41.610;25.380;2023-07-31T13:11:44;1.90;;;1.80;;
40849;SDS011;26571;41.610;25.380;2023-07-31T13:14:09;1.87;;;1.77;;
40849;SDS011;26571;41.610;25.380;2023-07-31T13:19:01;1.85;;;1.60;;
40849;SDS011;26571;41.610;25.380;2023-07-31T13:21:26;1.53;;;1.43;;
40849;SDS011;26571;41.610;25.380;2023-07-31T13:23:52;3.23;;;2.90;;
40849;SDS011;26571;41.610;25.380;2023-07-31T13:26:17;1.93;;;1.83;;
40849;SDS011;26571;41.610;25.380;2023-07-31T13:28:42;1.67;;;1.57;;
40849;SDS011;26571;41.610;25.380;2023-07-31T13:31:08;1.67;;;1.60;;
40849;SDS011;26571;41.610;25.380;2023-07-31T13:33:33;1.83;;;1.73;;
40849;SDS011;26571;41.610;25.380;2023-07-31T13:35:59;1.90;;;1.80;;
40849;SDS011;26571;41.610;25.380;2023-07-31T13:38:24;1.50;;;1.50;;
40849;SDS011;26571;41.610;25.380;2023-07-31T13:40:49;2.10;;;2.00;;
40849;SDS011;26571;41.610;25.380;2023-07-31T13:43:15;2.80;;;2.57;;
40849;SDS011;26571;41.610;25.380;2023-07-31T13:45:40;2.00;;;1.90;;
40849;SDS011;26571;41.610;25.380;2023-07-31T13:48:06;2.40;;;2.30;;
40849;SDS011;26571;41.610;25.380;2023-07-31T13:50:31;4.77;;;2.37;;
40849;SDS011;26571;41.610;25.380;2023-07-31T13:52:56;2.70;;;1.63;;
40849;SDS011;26571;41.610;25.380;2023-07-31T13:55:22;1.97;;;1.80;;
40849;SDS011;26571;41.610;25.380;2023-07-31T13:57:47;2.43;;;2.27;;
40849;SDS011;26571;41.610;25.380;2023-07-31T14:00:13;2.05;;;1.95;;
40849;SDS011;26571;41.610;25.380;2023-07-31T14:02:39;2.20;;;2.10;;
40849;SDS011;26571;41.610;25.380;2023-07-31T14:05:04;3.10;;;2.33;;
40849;SDS011;26571;41.610;25.380;2023-07-31T14:07:31;2.10;;;2.00;;
40849;SDS011;26571;41.610;25.380;2023-07-31T14:09:57;2.25;;;2.15;;
40849;SDS011;26571;41.610;25.380;2023-07-31T14:12:22;3.80;;;1.90;;
40849;SDS011;26571;41.610;25.380;2023-07-31T14:14:48;3.23;;;3.03;;
40849;SDS011;26571;41.610;25.380;2023-07-31T14:17:13;2.77;;;2.63;;
40849;SDS011;26571;41.610;25.380;2023-07-31T14:19:39;2.87;;;2.77;;
40849;SDS011;26571;41.610;25.380;2023-07-31T14:22:04;3.57;;;2.17;;
40849;SDS011;26571;41.610;25.380;2023-07-31T14:24:30;4.30;;;3.73;;
40849;SDS011;26571;41.610;25.380;2023-07-31T14:26:55;5.23;;;3.90;;
40849;SDS011;26571;41.610;25.380;2023-07-31T14:29:21;3.67;;;3.37;;
40849;SDS011;26571;41.610;25.380;2023-07-31T14:31:46;4.70;;;4.20;;
40849;SDS011;26571;41.610;25.380;2023-07-31T14:34:11;3.23;;;3.00;;
40849;SDS011;26571;41.610;25.380;2023-07-31T14:36:37;2.90;;;2.80;;
40849;SDS011;26571;41.610;25.380;2023-07-31T14:39:03;2.73;;;2.63;;
40849;SDS011;26571;41.610;25.380;2023-07-31T14:41:28;3.10;;;2.80;;
40849;SDS011;26571;41.610;25.380;2023-07-31T14:43:53;3.37;;;3.10;;
40849;SDS011;26571;41.610;25.380;2023-07-31T14:46:19;3.60;;;3.10;;
40849;SDS011;26571;41.610;25.380;2023-07-31T14:48:44;3.27;;;3.10;;
40849;SDS011;26571;41.610;25.380;2023-07-31T14:51:10;3.47;;;3.27;;
40849;SDS011;26571;41.610;25.380;2023-07-31T14:53:35;3.70;;;3.40;;
40849;SDS011;26571;41.610;25.380;2023-07-31T14:56:01;3.57;;;3.20;;
40849;SDS011;26571;41.610;25.380;2023-07-31T14:58:26;2.40;;;2.30;;
40849;SDS011;26571;41.610;25.380;2023-07-31T15:00:51;3.87;;;3.67;;
40849;SDS011;26571;41.610;25.380;2023-07-31T15:03:17;3.67;;;3.30;;
40849;SDS011;26571;41.610;25.380;2023-07-31T15:05:43;3.33;;;3.10;;